createdAt,value
2019-02-16T00:01:20.785Z,14.10
2019-02-16T00:03:48.079Z,17.83
2019-02-16T00:06:14.992Z,14.90
2019-02-16T00:08:42.027Z,14.47
2019-02-16T00:11:09.073Z,19.10
2019-02-16T00:13:36.129Z,14.93
2019-02-16T00:16:03.131Z,14.80
2019-02-16T00:18:30.219Z,16.77
2019-02-16T00:21:03.698Z,21.60
2019-02-16T00:23:24.828Z,14.43
2019-02-16T00:25:51.883Z,20.57
2019-02-16T00:28:18.926Z,17.37
2019-02-16T00:30:46.238Z,21.47
2019-02-16T00:33:13.228Z,19.23
2019-02-16T00:35:40.276Z,16.87
2019-02-16T00:38:07.331Z,20.37
2019-02-16T00:40:34.373Z,23.20
2019-02-16T00:43:01.328Z,18.70
2019-02-16T00:45:28.368Z,19.60
2019-02-16T00:47:55.417Z,18.83
2019-02-16T00:50:22.473Z,19.30
2019-02-16T00:52:51.358Z,11.33
2019-02-16T00:55:18.405Z,15.37
2019-02-16T00:57:47.304Z,19.97
2019-02-16T01:00:14.453Z,14.47
2019-02-16T01:02:41.498Z,16.67
2019-02-16T01:05:08.545Z,17.90
2019-02-16T01:07:35.598Z,20.30
2019-02-16T01:10:02.643Z,17.23
2019-02-16T01:12:29.805Z,14.60
2019-02-16T01:14:56.898Z,20.03
2019-02-16T01:17:23.895Z,16.60
2019-02-16T01:19:51.605Z,14.73
2019-02-16T01:22:27.414Z,17.30
2019-02-16T01:24:54.458Z,15.40
2019-02-16T01:27:22.027Z,13.07
2019-02-16T01:29:49.070Z,15.37
2019-02-16T01:32:16.859Z,14.60
2019-02-16T01:34:45.626Z,17.83
2019-02-16T01:37:12.674Z,15.10
2019-02-16T01:39:39.720Z,15.67
2019-02-16T01:42:06.774Z,19.17
2019-02-16T01:44:33.820Z,18.53
2019-02-16T01:47:00.863Z,14.37
2019-02-16T01:49:27.917Z,12.93
2019-02-16T01:51:54.932Z,14.97
2019-02-16T01:54:22.009Z,17.63
2019-02-16T01:56:49.062Z,21.27
2019-02-16T01:59:16.154Z,20.17
2019-02-16T02:01:43.671Z,18.27
2019-02-16T02:04:10.715Z,19.77
2019-02-16T02:06:37.763Z,19.77
2019-02-16T02:09:05.022Z,18.60
2019-02-16T02:11:32.065Z,19.03
2019-02-16T02:13:59.121Z,18.83
2019-02-16T02:16:26.162Z,15.47
2019-02-16T02:18:53.210Z,17.20
2019-02-16T02:21:20.207Z,17.47
2019-02-16T02:23:47.522Z,19.67
2019-02-16T02:26:14.464Z,17.93
2019-02-16T02:28:41.508Z,19.63
2019-02-16T02:31:08.562Z,13.70
2019-02-16T02:33:35.605Z,15.20
2019-02-16T02:36:03.064Z,18.73
2019-02-16T02:38:30.110Z,15.60
2019-02-16T02:40:57.166Z,13.40
2019-02-16T02:43:26.159Z,14.97
2019-02-16T02:45:53.201Z,18.43
2019-02-16T02:48:20.769Z,15.53
2019-02-16T02:50:48.169Z,12.80
2019-02-16T02:53:15.177Z,18.47
2019-02-16T02:55:42.836Z,18.93
2019-02-16T02:58:09.987Z,17.23
2019-02-16T03:00:36.980Z,18.17
2019-02-16T03:03:04.079Z,13.80
2019-02-16T03:05:33.380Z,12.50
2019-02-16T03:08:00.854Z,13.27
2019-02-16T03:10:27.893Z,12.03
2019-02-16T03:12:55.706Z,16.43
2019-02-16T03:15:22.910Z,16.77
2019-02-16T03:17:49.958Z,13.93
2019-02-16T03:20:17.052Z,18.27
2019-02-16T03:22:49.792Z,11.33
2019-02-16T03:25:16.839Z,20.83
2019-02-16T03:27:44.815Z,14.77
2019-02-16T03:30:17.605Z,14.57
2019-02-16T03:32:50.695Z,12.77
2019-02-16T03:35:17.833Z,17.33
2019-02-16T03:37:59.761Z,14.00
2019-02-16T03:40:26.773Z,19.37
2019-02-16T03:42:54.692Z,11.63
2019-02-16T03:45:21.797Z,16.53
2019-02-16T03:47:48.846Z,14.57
2019-02-16T03:50:15.889Z,12.87
2019-02-16T03:52:42.882Z,17.03
2019-02-16T03:55:09.985Z,14.77
2019-02-16T03:57:37.109Z,14.10
2019-02-16T04:00:04.129Z,11.97
2019-02-16T04:02:31.261Z,9.70
2019-02-16T04:04:58.284Z,10.07
2019-02-16T04:07:25.284Z,13.93
2019-02-16T04:09:52.277Z,13.37
2019-02-16T04:12:19.326Z,13.30
2019-02-16T04:14:46.378Z,11.93
2019-02-16T04:17:13.424Z,12.37
2019-02-16T04:19:40.472Z,9.87
2019-02-16T04:22:07.527Z,12.00
2019-02-16T04:24:34.572Z,12.63
2019-02-16T04:27:01.619Z,11.33
2019-02-16T04:29:28.671Z,13.07
2019-02-16T04:31:55.822Z,14.97
2019-02-16T04:34:22.864Z,14.10
2019-02-16T04:36:49.915Z,13.33
2019-02-16T04:39:16.986Z,14.73
2019-02-16T04:41:44.121Z,12.13
2019-02-16T04:44:11.270Z,12.53
2019-02-16T04:46:38.299Z,12.67
2019-02-16T04:49:05.361Z,12.17
2019-02-16T04:54:05.602Z,11.93
2019-02-16T04:56:32.652Z,10.00
2019-02-16T04:58:59.654Z,10.37
2019-02-16T05:01:28.699Z,13.23
2019-02-16T05:03:56.273Z,10.63
2019-02-16T05:06:25.870Z,14.73
2019-02-16T05:08:52.915Z,15.13
2019-02-16T05:11:19.962Z,12.20
2019-02-16T05:13:47.130Z,10.10
2019-02-16T05:16:14.173Z,7.83
2019-02-16T05:18:41.211Z,11.13
2019-02-16T05:21:08.154Z,10.97
2019-02-16T05:23:35.206Z,10.53
2019-02-16T05:26:03.278Z,10.53
2019-02-16T05:28:30.320Z,13.27
2019-02-16T05:30:57.370Z,12.33
2019-02-16T05:33:24.425Z,14.70
2019-02-16T05:35:51.467Z,10.67
2019-02-16T05:38:18.515Z,12.90
2019-02-16T05:40:45.569Z,8.07
2019-02-16T05:43:12.612Z,9.90
2019-02-16T05:45:39.670Z,8.73
2019-02-16T05:48:06.816Z,11.63
2019-02-16T05:50:33.877Z,10.07
2019-02-16T05:53:00.924Z,8.43
2019-02-16T05:55:27.960Z,7.97
2019-02-16T05:57:55.012Z,10.93
2019-02-16T06:00:22.060Z,13.70
2019-02-16T06:02:49.103Z,8.13
2019-02-16T06:05:16.161Z,4.93
2019-02-16T06:07:43.209Z,2.40
2019-02-16T06:10:10.468Z,8.37
2019-02-16T06:12:37.707Z,6.53
2019-02-16T06:15:04.762Z,8.87
2019-02-16T06:17:33.339Z,7.90
2019-02-16T06:20:00.404Z,3.43
2019-02-16T06:22:27.846Z,5.80
2019-02-16T06:24:56.744Z,8.43
2019-02-16T06:27:23.786Z,7.93
2019-02-16T06:29:50.937Z,9.53
2019-02-16T06:32:19.117Z,8.13
2019-02-16T06:34:46.214Z,6.50
2019-02-16T06:37:19.562Z,6.30
2019-02-16T06:39:47.021Z,7.60
2019-02-16T06:42:14.016Z,7.10
2019-02-16T06:44:41.729Z,6.67
2019-02-16T06:47:08.741Z,28.00
2019-02-16T06:49:35.839Z,16.83
2019-02-16T06:52:04.409Z,8.23
2019-02-16T06:54:31.463Z,5.43
2019-02-16T06:57:00.456Z,6.27
2019-02-16T06:59:27.560Z,7.63
2019-02-16T07:01:54.759Z,7.67
2019-02-16T07:04:21.802Z,8.43
2019-02-16T07:06:48.850Z,10.60
2019-02-16T07:09:15.912Z,6.23
2019-02-16T07:11:42.964Z,5.17
2019-02-16T07:14:12.768Z,6.43
2019-02-16T07:16:46.060Z,7.20
2019-02-16T07:19:16.898Z,6.90
2019-02-16T07:21:43.948Z,7.13
2019-02-16T07:24:10.972Z,7.63
2019-02-16T07:26:38.042Z,6.77
2019-02-16T07:29:05.105Z,6.57
2019-02-16T07:31:32.647Z,9.80
2019-02-16T07:33:59.705Z,9.13
2019-02-16T07:36:26.751Z,8.10
2019-02-16T07:38:53.793Z,3.80
2019-02-16T07:41:20.860Z,6.33
2019-02-16T07:44:02.791Z,8.00
2019-02-16T07:46:45.561Z,9.43
2019-02-16T07:49:14.652Z,9.40
2019-02-16T07:51:59.232Z,9.23
2019-02-16T07:54:26.368Z,8.87
2019-02-16T07:56:55.362Z,7.67
2019-02-16T07:59:25.068Z,11.83
2019-02-16T08:01:53.756Z,9.07
2019-02-16T08:04:22.651Z,8.43
2019-02-16T08:06:55.075Z,17.57
2019-02-16T08:09:36.099Z,18.00
2019-02-16T08:12:08.777Z,7.23
2019-02-16T08:14:41.868Z,20.63
2019-02-16T08:17:09.844Z,9.30
2019-02-16T08:19:37.709Z,11.93
2019-02-16T08:22:04.856Z,17.53
2019-02-16T08:24:35.765Z,7.37
2019-02-16T08:27:02.955Z,5.73
2019-02-16T08:29:35.942Z,7.27
2019-02-16T08:32:05.033Z,7.20
2019-02-16T08:34:32.189Z,11.00
2019-02-16T08:37:02.101Z,20.50
2019-02-16T08:39:45.945Z,13.27
2019-02-16T08:42:18.829Z,8.13
2019-02-16T08:44:45.982Z,8.77
2019-02-16T08:47:18.984Z,14.67
2019-02-16T08:49:55.946Z,22.63
2019-02-16T08:52:29.159Z,18.63
2019-02-16T08:55:01.964Z,16.63
2019-02-16T08:57:44.131Z,20.77
2019-02-16T09:00:16.927Z,15.63
2019-02-16T09:02:47.521Z,10.10
2019-02-16T09:05:15.410Z,8.90
2019-02-16T09:07:43.078Z,9.17
2019-02-16T09:10:10.942Z,10.03
2019-02-16T09:12:40.764Z,7.50
2019-02-16T09:15:13.599Z,2.10
2019-02-16T09:17:41.536Z,4.13
2019-02-16T09:20:15.638Z,4.90
2019-02-16T09:22:58.840Z,8.57
2019-02-16T09:25:40.753Z,5.17
2019-02-16T09:28:11.176Z,9.23
2019-02-16T09:30:39.249Z,13.17
2019-02-16T09:33:08.445Z,10.63
2019-02-16T09:35:41.663Z,11.70
2019-02-16T09:38:11.460Z,10.97
2019-02-16T09:40:53.731Z,11.27
2019-02-16T09:43:22.758Z,9.23
2019-02-16T09:45:50.928Z,9.10
2019-02-16T09:48:21.931Z,10.63
2019-02-16T09:50:50.047Z,9.67
2019-02-16T09:53:19.144Z,11.70
2019-02-16T09:55:50.492Z,10.40
2019-02-16T09:58:32.328Z,11.20
2019-02-16T10:01:10.243Z,13.33
2019-02-16T10:03:37.405Z,11.30
2019-02-16T10:06:20.106Z,10.40
2019-02-16T10:08:48.950Z,9.27
2019-02-16T10:11:22.964Z,9.47
2019-02-16T10:14:07.928Z,11.37
2019-02-16T10:16:51.899Z,11.33
2019-02-16T10:19:33.920Z,13.93
2019-02-16T10:22:04.738Z,10.17
2019-02-16T10:24:38.308Z,11.20
2019-02-16T10:27:07.973Z,10.50
2019-02-16T10:29:40.085Z,10.77
2019-02-16T10:32:08.286Z,10.70
2019-02-16T10:34:41.121Z,11.13
2019-02-16T10:37:10.756Z,11.73
2019-02-16T10:39:38.724Z,12.47
2019-02-16T10:42:12.663Z,11.10
2019-02-16T10:44:41.730Z,10.10
2019-02-16T10:47:14.614Z,9.87
2019-02-16T10:49:49.150Z,12.00
2019-02-16T10:52:22.085Z,10.27
2019-02-16T10:54:51.123Z,11.27
2019-02-16T10:57:23.918Z,13.07
2019-02-16T10:59:52.214Z,11.13
2019-02-16T11:02:19.900Z,11.47
2019-02-16T11:04:47.814Z,12.77
2019-02-16T11:07:17.322Z,12.27
2019-02-16T11:09:42.934Z,13.10
2019-02-16T11:12:16.940Z,12.13
2019-02-16T11:14:45.137Z,14.13
2019-02-16T11:17:13.200Z,13.60
2019-02-16T11:19:57.861Z,17.03
2019-02-16T11:22:35.710Z,16.67
2019-02-16T11:25:07.929Z,17.90
2019-02-16T11:27:35.598Z,16.70
2019-02-16T11:30:08.375Z,19.60
2019-02-16T11:32:38.904Z,18.67
2019-02-16T11:35:20.858Z,11.00
2019-02-16T11:37:53.692Z,14.20
2019-02-16T11:40:23.380Z,17.03
2019-02-16T11:42:59.458Z,18.53
2019-02-16T11:45:33.182Z,18.20
2019-02-16T11:48:15.367Z,16.80
2019-02-16T11:50:48.559Z,21.40
2019-02-16T11:53:33.529Z,14.90
2019-02-16T11:56:02.628Z,13.53
2019-02-16T11:58:30.750Z,17.17
2019-02-16T12:00:57.958Z,21.03
2019-02-16T12:03:35.373Z,18.33
2019-02-16T12:06:03.415Z,13.17
2019-02-16T12:08:45.849Z,17.43
2019-02-16T12:11:12.981Z,18.77
2019-02-16T12:13:45.662Z,17.40
2019-02-16T12:16:18.565Z,13.73
2019-02-16T12:19:01.257Z,14.37
2019-02-16T12:21:33.937Z,20.80
2019-02-16T12:24:19.521Z,21.00
2019-02-16T12:27:00.802Z,18.17
2019-02-16T12:29:33.845Z,20.25
2019-02-16T12:32:02.801Z,16.12
2019-02-16T12:34:35.998Z,17.05
2019-02-16T12:37:03.908Z,20.77
2019-02-16T12:39:33.761Z,20.25
2019-02-16T12:42:06.545Z,20.55
2019-02-16T12:44:48.441Z,21.77
2019-02-16T12:47:15.900Z,22.33
2019-02-16T12:49:45.922Z,21.42
2019-02-16T12:52:13.074Z,23.10
2019-02-16T12:54:43.299Z,15.40
2019-02-16T12:57:13.015Z,22.27
2019-02-16T12:59:45.994Z,24.70
2019-02-16T13:02:15.909Z,20.50
2019-02-16T13:04:45.929Z,17.60
2019-02-16T13:07:19.192Z,24.30
2019-02-16T13:09:48.731Z,19.08
2019-02-16T13:12:22.342Z,19.87
2019-02-16T13:15:03.000Z,22.65
2019-02-16T13:17:35.358Z,19.48
2019-02-16T13:20:03.919Z,20.73
2019-02-16T13:22:33.665Z,24.30
2019-02-16T13:25:11.568Z,23.08
2019-02-16T13:27:55.519Z,22.10
2019-02-16T13:30:37.374Z,22.67
2019-02-16T13:33:21.253Z,22.83
2019-02-16T13:36:03.151Z,21.33
2019-02-16T13:38:46.160Z,24.20
2019-02-16T13:41:28.074Z,20.65
2019-02-16T13:44:10.892Z,23.85
2019-02-16T13:46:42.750Z,24.70
2019-02-16T13:49:09.906Z,24.77
2019-02-16T13:51:44.304Z,31.17
2019-02-16T13:54:13.521Z,24.63
2019-02-16T13:56:44.457Z,29.30
2019-02-16T13:59:13.249Z,27.67
2019-02-16T14:01:42.866Z,21.62
2019-02-16T14:04:19.795Z,21.02
2019-02-16T14:06:49.551Z,22.87
2019-02-16T14:09:20.460Z,25.25
2019-02-16T14:11:59.321Z,22.62
2019-02-16T14:14:30.260Z,21.67
2019-02-16T14:17:13.176Z,22.42
2019-02-16T14:19:40.839Z,25.05
2019-02-16T14:22:07.892Z,22.77
2019-02-16T14:24:38.730Z,22.08
2019-02-16T14:27:05.774Z,21.85
2019-02-16T14:29:32.822Z,22.65
2019-02-16T14:31:59.876Z,22.83
2019-02-16T14:34:26.920Z,23.27
2019-02-16T14:36:53.967Z,29.58
2019-02-16T14:39:21.022Z,24.85
2019-02-16T14:41:48.064Z,60.03
2019-02-16T14:44:15.074Z,33.50
2019-02-16T14:46:42.017Z,24.87
2019-02-16T14:49:09.013Z,23.65
2019-02-16T14:51:36.054Z,23.50
2019-02-16T14:54:03.205Z,22.87
2019-02-16T14:56:30.463Z,24.75
2019-02-16T14:58:57.529Z,24.50
2019-02-16T15:01:25.480Z,22.73
2019-02-16T15:03:52.639Z,24.42
2019-02-16T15:06:19.683Z,24.73
2019-02-16T15:08:50.336Z,22.35
2019-02-16T15:11:18.917Z,22.30
2019-02-16T15:13:46.051Z,25.30
2019-02-16T15:16:13.095Z,25.05
2019-02-16T15:18:40.105Z,23.27
2019-02-16T15:21:07.197Z,24.98
2019-02-16T15:23:34.318Z,25.62
2019-02-16T15:26:01.566Z,21.73
2019-02-16T15:28:28.702Z,26.98
2019-02-16T15:30:55.906Z,24.02
2019-02-16T15:33:22.957Z,25.12
2019-02-16T15:35:50.049Z,24.25
2019-02-16T15:38:17.116Z,24.48
2019-02-16T15:40:44.502Z,25.98
2019-02-16T15:43:11.663Z,25.60
2019-02-16T15:45:38.823Z,25.52
2019-02-16T15:48:05.870Z,25.27
2019-02-16T15:50:34.544Z,23.48
2019-02-16T15:53:01.600Z,27.87
2019-02-16T15:55:28.847Z,25.60
2019-02-16T15:57:55.908Z,28.15
2019-02-16T16:00:23.054Z,25.15
2019-02-16T16:02:50.302Z,28.87
2019-02-16T16:05:17.457Z,32.03
2019-02-16T16:07:44.572Z,27.55
2019-02-16T16:10:21.585Z,27.08
2019-02-16T16:12:58.569Z,28.42
2019-02-16T16:15:26.648Z,27.95
2019-02-16T16:18:03.631Z,24.23
2019-02-16T16:20:41.414Z,28.85
2019-02-16T16:23:17.374Z,23.83
2019-02-16T16:25:50.263Z,31.33
2019-02-16T16:28:19.872Z,28.92
2019-02-16T16:30:50.730Z,29.80
2019-02-16T16:33:20.475Z,36.28
2019-02-16T16:36:02.418Z,30.00
2019-02-16T16:38:32.336Z,30.13
2019-02-16T16:41:01.324Z,33.53
2019-02-16T16:43:28.476Z,29.53
2019-02-16T16:46:01.267Z,32.00
2019-02-16T16:48:33.027Z,36.10
2019-02-16T16:51:03.197Z,40.40
2019-02-16T16:53:30.499Z,34.93
2019-02-16T16:56:01.638Z,33.83
2019-02-16T16:58:48.451Z,30.67
2019-02-16T17:01:30.655Z,31.17
2019-02-16T17:03:59.341Z,33.33
2019-02-16T17:06:27.115Z,31.33
2019-02-16T17:08:59.897Z,32.77
2019-02-16T17:11:32.678Z,32.87
2019-02-16T17:14:02.077Z,27.47
2019-02-16T17:16:35.371Z,36.80
2019-02-16T17:19:36.875Z,34.93
2019-02-16T17:22:24.990Z,27.00
2019-02-16T17:25:17.603Z,28.33
2019-02-16T17:28:01.534Z,32.57
2019-02-16T17:30:30.473Z,27.57
2019-02-16T17:33:16.551Z,26.87
2019-02-16T17:35:44.478Z,32.87
2019-02-16T17:38:16.400Z,33.53
2019-02-16T17:40:48.660Z,32.50
2019-02-16T17:43:32.495Z,28.80
2019-02-16T17:46:00.679Z,30.27
2019-02-16T17:48:28.743Z,37.87
2019-02-16T17:51:07.677Z,37.87
2019-02-16T17:53:34.721Z,37.53
2019-02-16T17:56:16.728Z,40.70
2019-02-16T17:58:46.540Z,38.90
2019-02-16T18:01:18.497Z,46.47
2019-02-16T18:03:46.524Z,45.27
2019-02-16T18:06:16.181Z,43.70
2019-02-16T18:08:58.435Z,41.07
2019-02-16T18:11:40.895Z,38.73
2019-02-16T18:14:08.968Z,36.40
2019-02-16T18:16:39.904Z,38.83
2019-02-16T18:19:22.015Z,48.50
2019-02-16T18:21:51.924Z,38.87
2019-02-16T18:24:23.081Z,60.07
2019-02-16T18:27:01.897Z,46.87
2019-02-16T18:29:29.967Z,39.57
2019-02-16T18:32:07.356Z,42.10
2019-02-16T18:34:40.334Z,34.17
2019-02-16T18:37:08.723Z,35.13
2019-02-16T18:39:37.401Z,29.50
2019-02-16T18:42:19.802Z,39.57
2019-02-16T18:44:46.883Z,38.00
2019-02-16T18:47:30.922Z,42.60
2019-02-16T18:50:03.601Z,35.83
2019-02-16T18:52:46.429Z,34.67
2019-02-16T18:55:15.424Z,34.73
2019-02-16T18:57:46.020Z,41.53
2019-02-16T19:00:15.774Z,36.83
2019-02-16T19:02:47.322Z,33.30
2019-02-16T19:05:14.463Z,36.03
2019-02-16T19:07:54.310Z,31.70
2019-02-16T19:10:27.299Z,36.60
2019-02-16T19:12:57.482Z,38.70
2019-02-16T19:15:25.141Z,40.10
2019-02-16T19:17:52.285Z,37.20
2019-02-16T19:20:38.074Z,35.50
2019-02-16T19:23:24.948Z,36.73
2019-02-16T19:25:56.547Z,37.23
2019-02-16T19:28:28.504Z,42.30
2019-02-16T19:31:00.574Z,39.20
2019-02-16T19:33:34.335Z,41.23
2019-02-16T19:36:02.142Z,52.10
2019-02-16T19:38:32.890Z,50.63
2019-02-16T19:41:10.268Z,45.87
2019-02-16T19:43:53.087Z,50.53
2019-02-16T19:46:27.918Z,43.57
2019-02-16T19:49:12.676Z,51.83
2019-02-16T19:51:44.097Z,56.27
2019-02-16T19:54:17.233Z,52.43
2019-02-16T19:56:55.132Z,37.63
2019-02-16T19:59:24.018Z,39.83
2019-02-16T20:02:09.806Z,40.33
2019-02-16T20:04:54.063Z,32.93
2019-02-16T20:07:36.058Z,37.17
2019-02-16T20:10:11.616Z,31.33
2019-02-16T20:12:44.916Z,25.63
2019-02-16T20:15:26.905Z,24.50
2019-02-16T20:17:54.268Z,25.97
2019-02-16T20:20:25.092Z,32.67
2019-02-16T20:22:52.143Z,28.93
2019-02-16T20:25:20.012Z,30.60
2019-02-16T20:28:02.828Z,30.90
2019-02-16T20:30:37.351Z,29.23
2019-02-16T20:33:04.609Z,30.53
2019-02-16T20:35:43.034Z,28.83
2019-02-16T20:38:16.598Z,33.13
2019-02-16T20:41:01.660Z,29.50
2019-02-16T20:43:33.360Z,26.60
2019-02-16T20:46:13.510Z,26.60
2019-02-16T20:48:58.887Z,28.00
2019-02-16T20:51:27.673Z,31.77
2019-02-16T20:54:00.557Z,23.37
2019-02-16T20:56:27.812Z,26.90
2019-02-16T20:59:09.616Z,28.53
2019-02-16T21:01:38.307Z,18.07
2019-02-16T21:04:13.026Z,25.13
2019-02-16T21:06:50.319Z,20.43
2019-02-16T21:09:19.410Z,30.80
2019-02-16T21:11:49.225Z,23.80
2019-02-16T21:14:21.956Z,16.40
2019-02-16T21:16:49.158Z,20.07
2019-02-16T21:19:21.945Z,23.50
2019-02-16T21:22:04.704Z,29.60
2019-02-16T21:24:31.804Z,32.17
2019-02-16T21:27:01.515Z,21.77
2019-02-16T21:29:33.480Z,24.50
2019-02-16T21:32:02.685Z,45.63
2019-02-16T21:34:46.426Z,23.70
2019-02-16T21:37:17.006Z,36.37
2019-02-16T21:39:44.919Z,21.30
2019-02-16T21:42:17.861Z,41.33
2019-02-16T21:44:54.996Z,50.73
2019-02-16T21:47:37.714Z,26.63
2019-02-16T21:50:07.520Z,24.00
2019-02-16T21:52:38.473Z,29.13
2019-02-16T21:55:20.357Z,29.27
2019-02-16T21:57:48.121Z,26.27
2019-02-16T22:00:21.110Z,30.47
2019-02-16T22:03:03.007Z,29.97
2019-02-16T22:05:39.993Z,30.90
2019-02-16T22:08:09.806Z,33.57
2019-02-16T22:10:47.502Z,35.83
2019-02-16T22:13:17.018Z,36.70
2019-02-16T22:15:44.066Z,38.53
2019-02-16T22:18:11.211Z,39.63
2019-02-16T22:20:38.253Z,57.80
2019-02-16T22:23:05.302Z,44.47
2019-02-16T22:25:32.364Z,45.80
2019-02-16T22:28:02.598Z,41.47
2019-02-16T22:30:29.624Z,40.70
2019-02-16T22:32:59.765Z,38.73
2019-02-16T22:35:28.737Z,34.13
2019-02-16T22:37:55.791Z,43.37
2019-02-16T22:40:22.834Z,37.23
2019-02-16T22:42:49.837Z,42.97
2019-02-16T22:45:16.939Z,37.00
2019-02-16T22:47:44.087Z,39.30
2019-02-16T22:50:11.129Z,35.37
2019-02-16T22:52:38.139Z,41.33
2019-02-16T22:55:05.328Z,43.40
2019-02-16T22:57:32.383Z,50.23
2019-02-16T22:59:59.428Z,52.53
2019-02-16T23:02:26.474Z,48.70
2019-02-16T23:04:54.921Z,38.30
2019-02-16T23:07:22.167Z,38.37
2019-02-16T23:09:49.260Z,40.50
2019-02-16T23:12:16.211Z,36.43
2019-02-16T23:14:43.255Z,33.27
2019-02-16T23:17:10.404Z,40.13
2019-02-16T23:19:37.452Z,43.93
2019-02-16T23:22:06.003Z,32.70
2019-02-16T23:27:30.661Z,43.77
2019-02-16T23:29:57.645Z,34.60
2019-02-16T23:32:24.645Z,41.70
2019-02-16T23:34:51.694Z,38.87
2019-02-16T23:37:18.747Z,38.17
2019-02-16T23:39:45.803Z,31.07
2019-02-16T23:42:12.798Z,33.83
2019-02-16T23:44:39.786Z,34.03
2019-02-16T23:47:10.424Z,39.03
2019-02-16T23:49:37.468Z,31.17
2019-02-16T23:52:07.436Z,31.43
2019-02-16T23:54:37.919Z,40.37
2019-02-16T23:57:05.633Z,39.40
2019-02-16T23:59:34.336Z,35.33
